sensor_id;sensor_type;location;lat;lon;timestamp;P1;durP1;ratioP1;P2;durP2;ratioP2
32106;SDS011;18622;51.998;10.440;2023-06-10T06:05:03;17.97;;;5.87;;
32106;SDS011;18622;51.998;10.440;2023-06-10T06:07:31;11.13;;;6.00;;
32106;SDS011;18622;51.998;10.440;2023-06-10T06:09:59;15.58;;;5.80;;
32106;SDS011;18622;51.998;10.440;2023-06-10T06:12:27;12.30;;;6.20;;
32106;SDS011;18622;51.998;10.440;2023-06-10T06:14:55;15.87;;;6.20;;
32106;SDS011;18622;51.998;10.440;2023-06-10T06:17:23;14.80;;;6.27;;
32106;SDS011;18622;51.998;10.440;2023-06-10T06:19:50;10.87;;;5.77;;
32106;SDS011;18622;51.998;10.440;2023-06-10T06:22:18;13.20;;;5.97;;
32106;SDS011;18622;51.998;10.440;2023-06-10T06:24:48;12.68;;;6.15;;
32106;SDS011;18622;51.998;10.440;2023-06-10T06:27:15;14.27;;;6.47;;
32106;SDS011;18622;51.998;10.440;2023-06-10T06:29:43;12.13;;;5.67;;
32106;SDS011;18622;51.998;10.440;2023-06-10T06:32:11;12.93;;;6.03;;
32106;SDS011;18622;51.998;10.440;2023-06-10T06:34:39;11.00;;;5.00;;
32106;SDS011;18622;51.998;10.440;2023-06-10T06:37:07;10.03;;;5.33;;
32106;SDS011;18622;51.998;10.440;2023-06-10T06:39:35;11.93;;;5.77;;
32106;SDS011;18622;51.998;10.440;2023-06-10T06:42:03;13.03;;;6.23;;
32106;SDS011;18622;51.998;10.440;2023-06-10T06:44:31;11.88;;;6.62;;
32106;SDS011;18622;51.998;10.440;2023-06-10T06:46:59;9.93;;;5.47;;
32106;SDS011;18622;51.998;10.440;2023-06-10T06:49:26;8.73;;;5.20;;
32106;SDS011;18622;51.998;10.440;2023-06-10T06:51:54;14.23;;;6.10;;
32106;SDS011;18622;51.998;10.440;2023-06-10T06:54:22;11.33;;;5.33;;
32106;SDS011;18622;51.998;10.440;2023-06-10T06:56:50;12.13;;;6.40;;
32106;SDS011;18622;51.998;10.440;2023-06-10T06:59:18;11.63;;;5.80;;
32106;SDS011;18622;51.998;10.440;2023-06-10T07:01:46;10.27;;;5.70;;
32106;SDS011;18622;51.998;10.440;2023-06-10T07:04:14;13.90;;;5.70;;
32106;SDS011;18622;51.998;10.440;2023-06-10T07:06:42;12.95;;;5.45;;
32106;SDS011;18622;51.998;10.440;2023-06-10T07:09:10;10.77;;;5.93;;
32106;SDS011;18622;51.998;10.440;2023-06-10T07:11:38;13.57;;;5.93;;
32106;SDS011;18622;51.998;10.440;2023-06-10T07:14:06;13.23;;;5.80;;
32106;SDS011;18622;51.998;10.440;2023-06-10T07:16:34;11.20;;;5.37;;
32106;SDS011;18622;51.998;10.440;2023-06-10T07:19:01;13.37;;;6.40;;
32106;SDS011;18622;51.998;10.440;2023-06-10T07:21:29;11.63;;;6.03;;
32106;SDS011;18622;51.998;10.440;2023-06-10T07:23:58;21.03;;;5.77;;
32106;SDS011;18622;51.998;10.440;2023-06-10T07:26:26;14.60;;;5.93;;
32106;SDS011;18622;51.998;10.440;2023-06-10T07:28:53;9.10;;;5.33;;
32106;SDS011;18622;51.998;10.440;2023-06-10T07:31:22;13.00;;;6.00;;
32106;SDS011;18622;51.998;10.440;2023-06-10T07:33:50;10.72;;;5.53;;
32106;SDS011;18622;51.998;10.440;2023-06-10T07:36:18;11.80;;;5.23;;
32106;SDS011;18622;51.998;10.440;2023-06-10T07:38:46;11.93;;;6.17;;
32106;SDS011;18622;51.998;10.440;2023-06-10T07:41:14;11.60;;;6.23;;
32106;SDS011;18622;51.998;10.440;2023-06-10T07:43:44;13.03;;;5.58;;
32106;SDS011;18622;51.998;10.440;2023-06-10T07:46:11;9.80;;;5.17;;
32106;SDS011;18622;51.998;10.440;2023-06-10T07:48:39;13.70;;;5.77;;
32106;SDS011;18622;51.998;10.440;2023-06-10T07:51:07;13.07;;;6.10;;
32106;SDS011;18622;51.998;10.440;2023-06-10T07:53:35;13.37;;;4.97;;
32106;SDS011;18622;51.998;10.440;2023-06-10T07:56:03;13.67;;;5.77;;
32106;SDS011;18622;51.998;10.440;2023-06-10T07:58:31;12.33;;;5.87;;
32106;SDS011;18622;51.998;10.440;2023-06-10T08:00:58;9.50;;;6.30;;
32106;SDS011;18622;51.998;10.440;2023-06-10T08:03:26;16.43;;;6.57;;
32106;SDS011;18622;51.998;10.440;2023-06-10T08:05:54;14.03;;;5.67;;
32106;SDS011;18622;51.998;10.440;2023-06-10T08:08:22;12.10;;;5.73;;
32106;SDS011;18622;51.998;10.440;2023-06-10T08:10:50;11.37;;;5.80;;
32106;SDS011;18622;51.998;10.440;2023-06-10T08:13:17;9.53;;;6.03;;
32106;SDS011;18622;51.998;10.440;2023-06-10T08:15:45;13.60;;;6.10;;
32106;SDS011;18622;51.998;10.440;2023-06-10T08:18:15;14.38;;;6.10;;
32106;SDS011;18622;51.998;10.440;2023-06-10T08:20:43;12.03;;;5.37;;
32106;SDS011;18622;51.998;10.440;2023-06-10T08:23:11;12.63;;;6.30;;
32106;SDS011;18622;51.998;10.440;2023-06-10T08:25:40;9.63;;;5.33;;
32106;SDS011;18622;51.998;10.440;2023-06-10T08:28:08;8.97;;;5.50;;
32106;SDS011;18622;51.998;10.440;2023-06-10T08:30:35;14.10;;;6.53;;
32106;SDS011;18622;51.998;10.440;2023-06-10T08:33:04;12.53;;;6.37;;
32106;SDS011;18622;51.998;10.440;2023-06-10T08:35:31;15.77;;;6.03;;
32106;SDS011;18622;51.998;10.440;2023-06-10T08:37:59;12.07;;;6.50;;
32106;SDS011;18622;51.998;10.440;2023-06-10T08:40:27;15.17;;;6.30;;
32106;SDS011;18622;51.998;10.440;2023-06-10T08:45:29;12.83;;;6.17;;
32106;SDS011;18622;51.998;10.440;2023-06-10T08:47:57;11.60;;;5.90;;
32106;SDS011;18622;51.998;10.440;2023-06-10T08:50:27;11.90;;;6.10;;
32106;SDS011;18622;51.998;10.440;2023-06-10T08:52:57;13.98;;;5.87;;
32106;SDS011;18622;51.998;10.440;2023-06-10T08:58:04;11.33;;;6.40;;
32106;SDS011;18622;51.998;10.440;2023-06-10T09:00:32;17.17;;;6.83;;
32106;SDS011;18622;51.998;10.440;2023-06-10T09:03:03;14.80;;;6.43;;
32106;SDS011;18622;51.998;10.440;2023-06-10T09:05:33;10.25;;;6.20;;
32106;SDS011;18622;51.998;10.440;2023-06-10T09:08:02;7.70;;;5.55;;
32106;SDS011;18622;51.998;10.440;2023-06-10T09:10:30;14.47;;;6.10;;
32106;SDS011;18622;51.998;10.440;2023-06-10T09:12:59;11.35;;;6.08;;
32106;SDS011;18622;51.998;10.440;2023-06-10T09:15:26;9.20;;;5.77;;
32106;SDS011;18622;51.998;10.440;2023-06-10T09:17:54;13.73;;;6.20;;
32106;SDS011;18622;51.998;10.440;2023-06-10T09:20:23;9.57;;;6.00;;
32106;SDS011;18622;51.998;10.440;2023-06-10T09:22:51;9.73;;;6.08;;
32106;SDS011;18622;51.998;10.440;2023-06-10T09:25:18;8.97;;;6.10;;
32106;SDS011;18622;51.998;10.440;2023-06-10T09:27:49;11.90;;;5.90;;
32106;SDS011;18622;51.998;10.440;2023-06-10T09:30:30;10.17;;;5.90;;
32106;SDS011;18622;51.998;10.440;2023-06-10T09:33:10;10.72;;;6.40;;
32106;SDS011;18622;51.998;10.440;2023-06-10T09:35:29;10.32;;;6.05;;
32106;SDS011;18622;51.998;10.440;2023-06-10T09:37:58;11.30;;;5.27;;
32106;SDS011;18622;51.998;10.440;2023-06-10T09:40:27;10.03;;;6.08;;
32106;SDS011;18622;51.998;10.440;2023-06-10T09:42:55;13.10;;;6.27;;
32106;SDS011;18622;51.998;10.440;2023-06-10T09:45:30;12.23;;;6.20;;
32106;SDS011;18622;51.998;10.440;2023-06-10T09:47:58;12.10;;;6.33;;
32106;SDS011;18622;51.998;10.440;2023-06-10T09:50:27;11.10;;;6.00;;
32106;SDS011;18622;51.998;10.440;2023-06-10T09:52:56;8.40;;;5.57;;
32106;SDS011;18622;51.998;10.440;2023-06-10T09:55:24;9.67;;;5.50;;
32106;SDS011;18622;51.998;10.440;2023-06-10T09:57:53;14.33;;;6.77;;
32106;SDS011;18622;51.998;10.440;2023-06-10T10:00:21;11.90;;;6.05;;
32106;SDS011;18622;51.998;10.440;2023-06-10T10:02:52;9.88;;;6.00;;
32106;SDS011;18622;51.998;10.440;2023-06-10T10:05:21;10.50;;;5.80;;
32106;SDS011;18622;51.998;10.440;2023-06-10T10:07:49;10.70;;;5.90;;
32106;SDS011;18622;51.998;10.440;2023-06-10T10:10:17;10.43;;;6.13;;
32106;SDS011;18622;51.998;10.440;2023-06-10T10:12:47;12.43;;;6.40;;
32106;SDS011;18622;51.998;10.440;2023-06-10T10:15:17;8.37;;;5.67;;
32106;SDS011;18622;51.998;10.440;2023-06-10T10:17:49;11.03;;;6.00;;
32106;SDS011;18622;51.998;10.440;2023-06-10T10:20:20;13.70;;;6.43;;
32106;SDS011;18622;51.998;10.440;2023-06-10T10:22:50;8.90;;;5.55;;
32106;SDS011;18622;51.998;10.440;2023-06-10T10:25:27;11.73;;;6.37;;
32106;SDS011;18622;51.998;10.440;2023-06-10T10:28:10;10.43;;;5.97;;
32106;SDS011;18622;51.998;10.440;2023-06-10T10:30:42;8.98;;;6.22;;
32106;SDS011;18622;51.998;10.440;2023-06-10T10:33:16;11.93;;;5.90;;
32106;SDS011;18622;51.998;10.440;2023-06-10T10:35:58;13.13;;;6.37;;
32106;SDS011;18622;51.998;10.440;2023-06-10T10:38:27;11.53;;;6.65;;
32106;SDS011;18622;51.998;10.440;2023-06-10T10:40:56;16.15;;;5.97;;
32106;SDS011;18622;51.998;10.440;2023-06-10T10:43:26;14.90;;;6.67;;
32106;SDS011;18622;51.998;10.440;2023-06-10T10:45:58;9.10;;;5.87;;
32106;SDS011;18622;51.998;10.440;2023-06-10T10:48:26;14.30;;;7.03;;
32106;SDS011;18622;51.998;10.440;2023-06-10T10:50:57;12.57;;;6.80;;
32106;SDS011;18622;51.998;10.440;2023-06-10T10:53:25;13.15;;;5.75;;
32106;SDS011;18622;51.998;10.440;2023-06-10T10:56:04;13.87;;;7.23;;
32106;SDS011;18622;51.998;10.440;2023-06-10T10:58:40;10.32;;;6.50;;
32106;SDS011;18622;51.998;10.440;2023-06-10T11:01:11;8.73;;;6.75;;
32106;SDS011;18622;51.998;10.440;2023-06-10T11:03:43;13.32;;;6.60;;
32106;SDS011;18622;51.998;10.440;2023-06-10T11:06:14;9.65;;;6.25;;
32106;SDS011;18622;51.998;10.440;2023-06-10T11:11:20;12.00;;;6.78;;
32106;SDS011;18622;51.998;10.440;2023-06-10T11:16:43;8.68;;;6.03;;
32106;SDS011;18622;51.998;10.440;2023-06-10T11:19:09;10.35;;;5.78;;
32106;SDS011;18622;51.998;10.440;2023-06-10T11:24:25;7.97;;;6.10;;
32106;SDS011;18622;51.998;10.440;2023-06-10T11:26:53;10.20;;;7.03;;
32106;SDS011;18622;51.998;10.440;2023-06-10T11:29:21;10.63;;;6.70;;
32106;SDS011;18622;51.998;10.440;2023-06-10T11:31:49;8.57;;;6.87;;
32106;SDS011;18622;51.998;10.440;2023-06-10T11:34:26;11.56;;;6.49;;
32106;SDS011;18622;51.998;10.440;2023-06-10T11:36:55;10.93;;;7.65;;
32106;SDS011;18622;51.998;10.440;2023-06-10T11:39:23;9.50;;;6.70;;
32106;SDS011;18622;51.998;10.440;2023-06-10T11:41:52;9.50;;;6.42;;
32106;SDS011;18622;51.998;10.440;2023-06-10T11:44:21;11.43;;;6.80;;
32106;SDS011;18622;51.998;10.440;2023-06-10T11:46:48;11.25;;;6.35;;
32106;SDS011;18622;51.998;10.440;2023-06-10T11:49:17;10.15;;;6.83;;
32106;SDS011;18622;51.998;10.440;2023-06-10T11:51:46;10.53;;;6.58;;
32106;SDS011;18622;51.998;10.440;2023-06-10T11:54:17;16.15;;;6.28;;
32106;SDS011;18622;51.998;10.440;2023-06-10T11:56:45;8.70;;;5.85;;
32106;SDS011;18622;51.998;10.440;2023-06-10T11:59:14;9.25;;;6.22;;
32106;SDS011;18622;51.998;10.440;2023-06-10T12:01:42;12.25;;;6.53;;
32106;SDS011;18622;51.998;10.440;2023-06-10T12:04:12;10.10;;;6.17;;
32106;SDS011;18622;51.998;10.440;2023-06-10T12:06:44;11.80;;;6.17;;
32106;SDS011;18622;51.998;10.440;2023-06-10T12:09:21;8.80;;;6.25;;
32106;SDS011;18622;51.998;10.440;2023-06-10T12:12:07;9.73;;;5.60;;
32106;SDS011;18622;51.998;10.440;2023-06-10T12:20:06;10.70;;;6.28;;
32106;SDS011;18622;51.998;10.440;2023-06-10T12:25:08;8.88;;;6.90;;
32106;SDS011;18622;51.998;10.440;2023-06-10T12:27:36;7.47;;;6.62;;
32106;SDS011;18622;51.998;10.440;2023-06-10T12:30:05;10.32;;;6.45;;
32106;SDS011;18622;51.998;10.440;2023-06-10T12:32:39;7.55;;;6.58;;
32106;SDS011;18622;51.998;10.440;2023-06-10T12:35:10;7.30;;;6.00;;
32106;SDS011;18622;51.998;10.440;2023-06-10T12:37:40;7.60;;;6.45;;
32106;SDS011;18622;51.998;10.440;2023-06-10T12:40:08;13.05;;;6.80;;
32106;SDS011;18622;51.998;10.440;2023-06-10T12:42:36;8.58;;;6.30;;
32106;SDS011;18622;51.998;10.440;2023-06-10T12:47:33;7.87;;;5.65;;
32106;SDS011;18622;51.998;10.440;2023-06-10T12:50:03;6.97;;;6.15;;
32106;SDS011;18622;51.998;10.440;2023-06-10T12:54:59;7.83;;;6.12;;
32106;SDS011;18622;51.998;10.440;2023-06-10T12:57:26;8.77;;;6.07;;
32106;SDS011;18622;51.998;10.440;2023-06-10T12:59:55;6.83;;;5.92;;
32106;SDS011;18622;51.998;10.440;2023-06-10T13:02:25;6.92;;;5.92;;
32106;SDS011;18622;51.998;10.440;2023-06-10T13:04:52;6.97;;;6.27;;
32106;SDS011;18622;51.998;10.440;2023-06-10T13:07:20;7.05;;;6.30;;
32106;SDS011;18622;51.998;10.440;2023-06-10T13:09:48;6.87;;;6.17;;
32106;SDS011;18622;51.998;10.440;2023-06-10T13:12:17;10.88;;;6.53;;
32106;SDS011;18622;51.998;10.440;2023-06-10T13:14:45;8.55;;;6.50;;
32106;SDS011;18622;51.998;10.440;2023-06-10T13:17:12;7.77;;;6.70;;
32106;SDS011;18622;51.998;10.440;2023-06-10T13:19:40;10.00;;;6.57;;
32106;SDS011;18622;51.998;10.440;2023-06-10T13:22:08;9.30;;;6.83;;
32106;SDS011;18622;51.998;10.440;2023-06-10T13:24:35;11.40;;;7.73;;
32106;SDS011;18622;51.998;10.440;2023-06-10T13:27:09;7.25;;;6.37;;
32106;SDS011;18622;51.998;10.440;2023-06-10T13:29:39;7.17;;;6.47;;
32106;SDS011;18622;51.998;10.440;2023-06-10T13:32:07;7.62;;;6.87;;
32106;SDS011;18622;51.998;10.440;2023-06-10T13:34:35;8.68;;;7.20;;
32106;SDS011;18622;51.998;10.440;2023-06-10T13:37:03;8.93;;;7.33;;
32106;SDS011;18622;51.998;10.440;2023-06-10T13:39:31;10.38;;;8.20;;
32106;SDS011;18622;51.998;10.440;2023-06-10T13:41:59;8.58;;;7.42;;
32106;SDS011;18622;51.998;10.440;2023-06-10T13:44:27;7.70;;;7.00;;
32106;SDS011;18622;51.998;10.440;2023-06-10T13:46:56;10.50;;;7.08;;
32106;SDS011;18622;51.998;10.440;2023-06-10T13:49:24;8.77;;;7.00;;
32106;SDS011;18622;51.998;10.440;2023-06-10T13:51:51;9.47;;;7.87;;
32106;SDS011;18622;51.998;10.440;2023-06-10T13:54:19;8.08;;;7.35;;
32106;SDS011;18622;51.998;10.440;2023-06-10T13:56:47;8.63;;;7.75;;
32106;SDS011;18622;51.998;10.440;2023-06-10T13:59:15;9.48;;;7.53;;
32106;SDS011;18622;51.998;10.440;2023-06-10T14:01:42;9.35;;;7.42;;
32106;SDS011;18622;51.998;10.440;2023-06-10T14:04:10;8.38;;;7.50;;
32106;SDS011;18622;51.998;10.440;2023-06-10T14:06:38;9.05;;;7.20;;
32106;SDS011;18622;51.998;10.440;2023-06-10T14:09:06;7.40;;;6.70;;
32106;SDS011;18622;51.998;10.440;2023-06-10T14:11:34;9.63;;;7.67;;
32106;SDS011;18622;51.998;10.440;2023-06-10T14:14:02;10.10;;;7.12;;
32106;SDS011;18622;51.998;10.440;2023-06-10T14:16:29;8.10;;;7.37;;
32106;SDS011;18622;51.998;10.440;2023-06-10T14:18:57;9.73;;;7.58;;
32106;SDS011;18622;51.998;10.440;2023-06-10T14:21:25;8.38;;;7.53;;
32106;SDS011;18622;51.998;10.440;2023-06-10T14:23:53;9.18;;;7.87;;
32106;SDS011;18622;51.998;10.440;2023-06-10T14:26:21;8.73;;;7.83;;
32106;SDS011;18622;51.998;10.440;2023-06-10T14:28:49;9.45;;;8.55;;
32106;SDS011;18622;51.998;10.440;2023-06-10T14:31:17;8.95;;;7.78;;
32106;SDS011;18622;51.998;10.440;2023-06-10T14:33:44;8.93;;;8.20;;
32106;SDS011;18622;51.998;10.440;2023-06-10T14:36:12;9.35;;;8.45;;
32106;SDS011;18622;51.998;10.440;2023-06-10T14:38:40;9.70;;;7.67;;
32106;SDS011;18622;51.998;10.440;2023-06-10T14:41:08;9.28;;;7.00;;
32106;SDS011;18622;51.998;10.440;2023-06-10T14:43:36;10.13;;;7.50;;
32106;SDS011;18622;51.998;10.440;2023-06-10T14:46:03;13.80;;;7.53;;
32106;SDS011;18622;51.998;10.440;2023-06-10T14:48:31;11.50;;;9.23;;
32106;SDS011;18622;51.998;10.440;2023-06-10T14:50:59;14.00;;;8.10;;
32106;SDS011;18622;51.998;10.440;2023-06-10T14:53:27;8.73;;;7.92;;
32106;SDS011;18622;51.998;10.440;2023-06-10T14:55:55;13.13;;;8.80;;
32106;SDS011;18622;51.998;10.440;2023-06-10T14:58:22;11.08;;;8.35;;
32106;SDS011;18622;51.998;10.440;2023-06-10T15:00:50;9.75;;;8.75;;
32106;SDS011;18622;51.998;10.440;2023-06-10T15:03:18;9.58;;;8.65;;
32106;SDS011;18622;51.998;10.440;2023-06-10T15:05:46;8.70;;;7.97;;
32106;SDS011;18622;51.998;10.440;2023-06-10T15:08:14;8.85;;;8.05;;
32106;SDS011;18622;51.998;10.440;2023-06-10T15:10:42;8.40;;;7.60;;
32106;SDS011;18622;51.998;10.440;2023-06-10T15:13:10;7.97;;;7.28;;
32106;SDS011;18622;51.998;10.440;2023-06-10T15:15:38;8.10;;;7.50;;
32106;SDS011;18622;51.998;10.440;2023-06-10T15:18:05;8.17;;;7.23;;
32106;SDS011;18622;51.998;10.440;2023-06-10T15:20:33;10.87;;;7.40;;
32106;SDS011;18622;51.998;10.440;2023-06-10T15:23:00;7.50;;;6.77;;
32106;SDS011;18622;51.998;10.440;2023-06-10T15:25:28;7.20;;;6.07;;
32106;SDS011;18622;51.998;10.440;2023-06-10T15:27:56;8.88;;;6.03;;
32106;SDS011;18622;51.998;10.440;2023-06-10T15:30:24;6.53;;;5.83;;
32106;SDS011;18622;51.998;10.440;2023-06-10T15:32:51;10.83;;;6.03;;
32106;SDS011;18622;51.998;10.440;2023-06-10T15:35:19;6.50;;;5.90;;
32106;SDS011;18622;51.998;10.440;2023-06-10T15:37:47;9.63;;;5.90;;
32106;SDS011;18622;51.998;10.440;2023-06-10T15:40:15;7.47;;;5.40;;
32106;SDS011;18622;51.998;10.440;2023-06-10T15:42:43;8.00;;;5.45;;
32106;SDS011;18622;51.998;10.440;2023-06-10T15:45:10;9.10;;;6.37;;
32106;SDS011;18622;51.998;10.440;2023-06-10T15:47:38;8.48;;;5.22;;
32106;SDS011;18622;51.998;10.440;2023-06-10T15:50:07;5.72;;;4.75;;
32106;SDS011;18622;51.998;10.440;2023-06-10T15:52:35;6.12;;;4.58;;
32106;SDS011;18622;51.998;10.440;2023-06-10T15:55:03;5.25;;;4.75;;
32106;SDS011;18622;51.998;10.440;2023-06-10T15:57:31;10.10;;;5.03;;
32106;SDS011;18622;51.998;10.440;2023-06-10T15:59:58;6.62;;;5.30;;
32106;SDS011;18622;51.998;10.440;2023-06-10T16:02:26;10.28;;;5.60;;
32106;SDS011;18622;51.998;10.440;2023-06-10T16:04:54;8.25;;;4.83;;
32106;SDS011;18622;51.998;10.440;2023-06-10T16:07:22;9.65;;;5.05;;
32106;SDS011;18622;51.998;10.440;2023-06-10T16:09:49;8.28;;;5.10;;
32106;SDS011;18622;51.998;10.440;2023-06-10T16:12:17;8.77;;;5.13;;
32106;SDS011;18622;51.998;10.440;2023-06-10T16:14:45;14.40;;;4.90;;
32106;SDS011;18622;51.998;10.440;2023-06-10T16:17:12;8.78;;;4.85;;
32106;SDS011;18622;51.998;10.440;2023-06-10T16:19:40;7.85;;;4.87;;
32106;SDS011;18622;51.998;10.440;2023-06-10T16:22:07;7.92;;;4.58;;
32106;SDS011;18622;51.998;10.440;2023-06-10T16:24:35;5.80;;;4.37;;
32106;SDS011;18622;51.998;10.440;2023-06-10T16:27:03;6.42;;;4.25;;
32106;SDS011;18622;51.998;10.440;2023-06-10T16:29:32;7.37;;;4.60;;
32106;SDS011;18622;51.998;10.440;2023-06-10T16:32:00;5.67;;;4.80;;
32106;SDS011;18622;51.998;10.440;2023-06-10T16:34:28;13.40;;;4.67;;
32106;SDS011;18622;51.998;10.440;2023-06-10T16:36:56;9.18;;;4.50;;
32106;SDS011;18622;51.998;10.440;2023-06-10T16:39:23;4.95;;;4.45;;
32106;SDS011;18622;51.998;10.440;2023-06-10T16:41:51;4.57;;;4.17;;
32106;SDS011;18622;51.998;10.440;2023-06-10T16:44:18;5.25;;;4.53;;
32106;SDS011;18622;51.998;10.440;2023-06-10T16:46:46;5.92;;;4.62;;
32106;SDS011;18622;51.998;10.440;2023-06-10T16:49:14;7.00;;;4.70;;
32106;SDS011;18622;51.998;10.440;2023-06-10T16:51:41;6.53;;;4.20;;
32106;SDS011;18622;51.998;10.440;2023-06-10T16:54:09;5.62;;;4.70;;
32106;SDS011;18622;51.998;10.440;2023-06-10T16:56:37;5.20;;;3.80;;
32106;SDS011;18622;51.998;10.440;2023-06-10T16:59:04;6.70;;;4.12;;
32106;SDS011;18622;51.998;10.440;2023-06-10T17:01:33;8.23;;;4.27;;
32106;SDS011;18622;51.998;10.440;2023-06-10T17:04:00;5.83;;;3.90;;
32106;SDS011;18622;51.998;10.440;2023-06-10T17:06:28;4.62;;;4.22;;
32106;SDS011;18622;51.998;10.440;2023-06-10T17:08:56;4.40;;;3.97;;
32106;SDS011;18622;51.998;10.440;2023-06-10T17:11:23;5.15;;;4.65;;
32106;SDS011;18622;51.998;10.440;2023-06-10T17:13:51;6.33;;;4.30;;
32106;SDS011;18622;51.998;10.440;2023-06-10T17:16:19;6.17;;;4.70;;
32106;SDS011;18622;51.998;10.440;2023-06-10T17:18:46;10.55;;;4.45;;
32106;SDS011;18622;51.998;10.440;2023-06-10T17:21:14;7.92;;;4.58;;
32106;SDS011;18622;51.998;10.440;2023-06-10T17:23:42;5.43;;;4.03;;
32106;SDS011;18622;51.998;10.440;2023-06-10T17:26:09;4.67;;;4.27;;
32106;SDS011;18622;51.998;10.440;2023-06-10T17:28:37;11.07;;;4.00;;
32106;SDS011;18622;51.998;10.440;2023-06-10T17:31:05;5.00;;;4.47;;
32106;SDS011;18622;51.998;10.440;2023-06-10T17:33:33;6.17;;;4.37;;
32106;SDS011;18622;51.998;10.440;2023-06-10T17:36:01;5.47;;;4.00;;
32106;SDS011;18622;51.998;10.440;2023-06-10T17:38:28;5.70;;;4.60;;
32106;SDS011;18622;51.998;10.440;2023-06-10T17:40:56;7.70;;;4.50;;
32106;SDS011;18622;51.998;10.440;2023-06-10T17:43:24;10.37;;;4.80;;
32106;SDS011;18622;51.998;10.440;2023-06-10T17:45:52;6.30;;;4.87;;
32106;SDS011;18622;51.998;10.440;2023-06-10T17:50:48;8.93;;;5.22;;
32106;SDS011;18622;51.998;10.440;2023-06-10T17:53:16;7.73;;;4.77;;
32106;SDS011;18622;51.998;10.440;2023-06-10T17:55:43;5.57;;;4.97;;
32106;SDS011;18622;51.998;10.440;2023-06-10T17:58:11;6.87;;;4.67;;
32106;SDS011;18622;51.998;10.440;2023-06-10T18:00:39;7.60;;;4.67;;
32106;SDS011;18622;51.998;10.440;2023-06-10T18:03:07;6.00;;;4.93;;
32106;SDS011;18622;51.998;10.440;2023-06-10T18:05:35;5.83;;;4.93;;
32106;SDS011;18622;51.998;10.440;2023-06-10T18:08:02;7.37;;;4.93;;
32106;SDS011;18622;51.998;10.440;2023-06-10T18:10:30;13.83;;;5.67;;
32106;SDS011;18622;51.998;10.440;2023-06-10T18:12:58;9.37;;;5.67;;
32106;SDS011;18622;51.998;10.440;2023-06-10T18:15:27;6.17;;;4.17;;
32106;SDS011;18622;51.998;10.440;2023-06-10T18:17:55;11.73;;;5.25;;
32106;SDS011;18622;51.998;10.440;2023-06-10T18:20:23;13.80;;;5.10;;
32106;SDS011;18622;51.998;10.440;2023-06-10T18:22:51;6.03;;;4.73;;
32106;SDS011;18622;51.998;10.440;2023-06-10T18:25:19;9.17;;;5.60;;
32106;SDS011;18622;51.998;10.440;2023-06-10T18:27:46;11.93;;;5.43;;
32106;SDS011;18622;51.998;10.440;2023-06-10T18:30:14;7.37;;;5.23;;
32106;SDS011;18622;51.998;10.440;2023-06-10T18:32:42;7.60;;;5.13;;
32106;SDS011;18622;51.998;10.440;2023-06-10T18:35:10;5.73;;;5.10;;
32106;SDS011;18622;51.998;10.440;2023-06-10T18:37:38;10.37;;;5.80;;
32106;SDS011;18622;51.998;10.440;2023-06-10T18:40:08;7.40;;;5.27;;
32106;SDS011;18622;51.998;10.440;2023-06-10T18:42:35;6.50;;;5.10;;
32106;SDS011;18622;51.998;10.440;2023-06-10T18:45:03;12.70;;;5.10;;
32106;SDS011;18622;51.998;10.440;2023-06-10T18:47:31;7.05;;;5.20;;
32106;SDS011;18622;51.998;10.440;2023-06-10T18:49:59;8.63;;;5.50;;
32106;SDS011;18622;51.998;10.440;2023-06-10T18:52:27;7.93;;;6.53;;
32106;SDS011;18622;51.998;10.440;2023-06-10T18:54:55;7.87;;;5.20;;
32106;SDS011;18622;51.998;10.440;2023-06-10T18:57:22;10.90;;;5.57;;
32106;SDS011;18622;51.998;10.440;2023-06-10T18:59:50;7.97;;;5.47;;
32106;SDS011;18622;51.998;10.440;2023-06-10T19:02:18;10.70;;;6.43;;
32106;SDS011;18622;51.998;10.440;2023-06-10T19:04:46;11.30;;;6.10;;
32106;SDS011;18622;51.998;10.440;2023-06-10T19:07:14;9.17;;;5.57;;
32106;SDS011;18622;51.998;10.440;2023-06-10T19:09:42;10.17;;;5.47;;
32106;SDS011;18622;51.998;10.440;2023-06-10T19:12:10;8.13;;;6.03;;
32106;SDS011;18622;51.998;10.440;2023-06-10T19:14:38;8.83;;;6.03;;
32106;SDS011;18622;51.998;10.440;2023-06-10T19:17:07;9.97;;;5.67;;
32106;SDS011;18622;51.998;10.440;2023-06-10T19:19:36;7.58;;;5.47;;
32106;SDS011;18622;51.998;10.440;2023-06-10T19:22:04;13.07;;;5.80;;
32106;SDS011;18622;51.998;10.440;2023-06-10T19:24:32;11.17;;;6.00;;
32106;SDS011;18622;51.998;10.440;2023-06-10T19:26:59;6.63;;;5.73;;
32106;SDS011;18622;51.998;10.440;2023-06-10T19:29:27;7.37;;;5.53;;
32106;SDS011;18622;51.998;10.440;2023-06-10T19:31:55;7.30;;;5.47;;
32106;SDS011;18622;51.998;10.440;2023-06-10T19:34:23;7.30;;;6.40;;
32106;SDS011;18622;51.998;10.440;2023-06-10T19:36:51;8.78;;;6.03;;
32106;SDS011;18622;51.998;10.440;2023-06-10T19:39:19;10.70;;;6.90;;
32106;SDS011;18622;51.998;10.440;2023-06-10T19:41:47;12.33;;;6.23;;
32106;SDS011;18622;51.998;10.440;2023-06-10T19:44:15;12.97;;;6.57;;
32106;SDS011;18622;51.998;10.440;2023-06-10T19:46:45;8.43;;;6.40;;
32106;SDS011;18622;51.998;10.440;2023-06-10T19:49:13;8.90;;;6.20;;
32106;SDS011;18622;51.998;10.440;2023-06-10T19:51:41;18.57;;;6.37;;
32106;SDS011;18622;51.998;10.440;2023-06-10T19:54:10;8.28;;;6.22;;
32106;SDS011;18622;51.998;10.440;2023-06-10T19:56:38;7.50;;;6.13;;
32106;SDS011;18622;51.998;10.440;2023-06-10T19:59:06;8.50;;;5.77;;
32106;SDS011;18622;51.998;10.440;2023-06-10T20:01:34;13.47;;;7.17;;
32106;SDS011;18622;51.998;10.440;2023-06-10T20:04:02;10.33;;;6.17;;
32106;SDS011;18622;51.998;10.440;2023-06-10T20:06:31;12.53;;;7.05;;
32106;SDS011;18622;51.998;10.440;2023-06-10T20:08:59;8.67;;;6.23;;
32106;SDS011;18622;51.998;10.440;2023-06-10T20:11:27;6.73;;;6.00;;
32106;SDS011;18622;51.998;10.440;2023-06-10T20:13:55;12.03;;;6.17;;
32106;SDS011;18622;51.998;10.440;2023-06-10T20:16:22;10.60;;;6.33;;
32106;SDS011;18622;51.998;10.440;2023-06-10T20:18:51;7.00;;;6.00;;
32106;SDS011;18622;51.998;10.440;2023-06-10T20:21:19;10.10;;;6.03;;
32106;SDS011;18622;51.998;10.440;2023-06-10T20:23:47;7.63;;;5.97;;
32106;SDS011;18622;51.998;10.440;2023-06-10T20:26:15;7.95;;;5.80;;
32106;SDS011;18622;51.998;10.440;2023-06-10T20:28:44;9.23;;;5.95;;
32106;SDS011;18622;51.998;10.440;2023-06-10T20:31:13;10.60;;;6.53;;
32106;SDS011;18622;51.998;10.440;2023-06-10T20:33:40;6.50;;;5.73;;
32106;SDS011;18622;51.998;10.440;2023-06-10T20:36:08;9.13;;;5.83;;
32106;SDS011;18622;51.998;10.440;2023-06-10T20:38:36;8.70;;;6.60;;
32106;SDS011;18622;51.998;10.440;2023-06-10T20:41:04;7.20;;;5.70;;
32106;SDS011;18622;51.998;10.440;2023-06-10T20:43:31;8.03;;;5.87;;
32106;SDS011;18622;51.998;10.440;2023-06-10T20:45:59;16.30;;;5.80;;
32106;SDS011;18622;51.998;10.440;2023-06-10T20:48:27;6.23;;;5.53;;
32106;SDS011;18622;51.998;10.440;2023-06-10T20:50:55;12.33;;;6.80;;
32106;SDS011;18622;51.998;10.440;2023-06-10T20:53:23;17.53;;;9.03;;
32106;SDS011;18622;51.998;10.440;2023-06-10T20:55:51;8.30;;;6.37;;
32106;SDS011;18622;51.998;10.440;2023-06-10T20:58:19;9.43;;;5.60;;
